Pagrindinis puslapis
METAR-TAF:

METAR-TAF

Oro uostai :

Kudat, Malaizija

platuma: 06-55N, ilguma: 116-50E, Aukštis: 3 m

Dabartinis oras

Ataskaita buvo paskelbta 38 minutes, ne 01:00 UTC
Vėjas 6 kt iš Vakarų, svyruoja nuo Vakarų/Pietvakarių ir Vakarų/Šiaurės Vakarų
Temperatūra 28°C
Drėgmė 79%
Slėgis 1008 hPa
Matomumas 10 km arba daugiau
Mažai debesys ne aukštis 1500 ft

METAR: WBKT 260100Z 27006KT 240V300 9999 FEW015 28/24 Q1008

Laikas: 09:38 (01:38 UTC)


TAF: trūkstamas

Orai ataskaitas ir orų prognozės (METAR, TAF).

turimą stotys yra geltonos ir raudonos taškus žemėlapyje.

Perkelti pele per norėdami pamatyti stoties vardą.

Tada spustelėkite, norėdami matyti oro stebėjimo ir prognozės.

Norėdami pakeisti žemėlapį: spustelėkite ant žalios mygtukų su juodo kryžiaus žemyn,; žalią mygtuką su brūkšneliu, jei norite nutolinti; arba žalių rodyklių gretimoms žemėlapius.


METAR-TAF: